Kamenica Nad Cirochou, Slovakia

3:58 AM CEST on May 05, 2015 (GMT +0200)
Markovce MS2 | | Change Station
CLOSE
Current Station
Personal Weather Station
Location: Markovce, KOšICKý KRAJ
Elevation: 384 ft
Nearby Weather Stations

Elev 384 ft 48.59 °N, 21.84 °E | Updated 13 minutes ago

Overcast
Overcast
56.7 °F
Feels Like 56.7 °F
N
2.0
Wind Variable Wind from North
Gusts 3.0 mph

Today
High -- | Low -- °F
--% Chance of Precip.
Yesterday
High -- | Low -- °F
Precip. -- in
5:05 AM 7:52 PM
Full, 99% visible
Pressure 29.98 in
Visibility 5.0 miles
Clouds Overcast 1500 ft
Dew Point 56 °F
Humidity 98%
Rainfall 0.00 in
Snow Depth Not available.
UV 0.0 out of 12
Pollen Not available.
Air Quality Not available.
Flu Activity Not available.
METAR LZKZ 050130Z 36004KT 8000 OVC015 14/12 Q1015

More Conditions Fewer Conditions

Pressure 29.98 in
Visibility 5.0 miles
Clouds Overcast 1500 ft
Dew Point 56 °F
Humidity 98%
Rainfall 0.00 in
Snow Depth Not available.
UV 0.0 out of 12
Pollen Not available.
Air Quality Not available.
Flu Activity Not available.
METAR LZKZ 050130Z 36004KT 8000 OVC015 14/12 Q1015

More Conditions Fewer Conditions

10-Day Weather Forecast

Almanac

Astronomy

May. 05, 2015 Rise Set
Actual Time
Civil Twilight
Nautical Twilight
Astronomical Twilight
Moon
Length of Visible Light
Length of Day
Tomorrow will be .
, % of the Moon is Illuminated

Today's Extremes

Country Highs Country Lows

Community

WunderPhotos

Upload Photos

1,818,779 photos uploaded!

WunderBlogs® & News

Nearby

Air Quality

  Air Quality AQ Index Pollutant
Not available.

Snow Depth

Station Depth Elevation

Earthquake Activity

City Distance Mag. Time & Date
Minimum magnitude displayed is 2.5.

Coastal Water Temperatures

Place Temperature

Stations

Nearby Weather Stations

Station Location Temp. Windchill Dew Point Humidity Wind Precip. Elev Updated Type